LFLPLFLY

Guest
Details From LFLP - Meythet
To LFLY - Lyon Bron
Flight Number -
Tags Generated
Created
Modified
Stats Distance 50 nm / 93 km
Max Altitude 0 ft / 0 m
Waypoints 2
Social Downloads 1
Likes 0
Share VATSIM

Download

Looking for another format? Having issues loading an existing format? Contact us
Advertisement - Login to hide

Notes

Generated

Route

LFLP LFLY

ID Type Via Altitude Latitude Longitude Leg Dist Tot Dist Heading (true) Name
O LFLP APT - 0 ft / 0 m 45.93156˚ 6.10400˚ - 0 nm - Annecy Haute-Sovoie Mont Blanc Meythet
O LFLY APT - 0 ft / 0 m 45.73501˚ 4.94093˚ 50 nm 50 nm 257° / 256° -

Altitude Profile

Advertisement - Login to hide

LFLP

Details ICAO LFLP (NCY)
Name Annecy Haute-Sovoie Mont Blanc Meythet
Region France
Timezone Europe/Paris (UTC+2.0)
Stats Elevation 1,520 ft / 463 m (AMSL)
Location 45.928820° 6.099601°
Runways 2
Magnetic Variation 1.794° E

METAR

LFLP 260500Z AUTO 05002KT CAVOK 15/13 Q1018 NOSIG

Decode

TAF

TAF LFLP 260200Z 2603/2703 VRB03KT CAVOK

Decode

Departure Runways

ID Width Length Bearing (true) Bearing (mag) Surface Threshold Offset Overrun Length
04 98 ft / 30 m 5,290 ft / 1,612 m 38.51° 36.72° Asphalt 820 ft / 250 m 0 ft / 0 m
22 98 ft / 30 m 5,290 ft / 1,612 m 218.52° 216.73° Asphalt 755 ft / 230 m 0 ft / 0 m
22C 230 ft / 70 m 2,783 ft / 848 m 218.40° 216.61° Grass 0 ft / 0 m 0 ft / 0 m
4C 230 ft / 70 m 2,783 ft / 848 m 38.40° 36.61° Grass 0 ft / 0 m 0 ft / 0 m

LFLY

Details ICAO LFLY (LYN)
Name Lyon Bron
Region France
Timezone Europe/Paris (UTC+2.0)
Stats Elevation 659 ft / 201 m (AMSL)
Location 45.727171° 4.944274°
Runways 1
Magnetic Variation 1.504° E

METAR

LFLY 260500Z AUTO 21001KT CAVOK 19/10 Q1016 TEMPO 16012KT

Decode

TAF

TAF AMD LFLY 252324Z 2600/2624 14003KT CAVOK TEMPO 2605/2624 16012KT

Decode

Destination Runways

ID Width Length Bearing (true) Bearing (mag) Surface Threshold Offset Overrun Length
16 148 ft / 45 m 5,972 ft / 1,820 m 163.44° 161.94° Asphalt 984 ft / 300 m 0 ft / 0 m
34 148 ft / 45 m 5,972 ft / 1,820 m 343.44° 341.94° Asphalt 984 ft / 300 m 0 ft / 0 m

Approach Navaids

Runway Type Ident Frequency Range Bearing (true) Bearing (mag) Slope Elevation
16 Localiser LBO 109.95 MHz 18 nm / 33 km 163.45° 161.95° - 653 ft / 199 m (AMSL)
16 DME LBO 109.95 MHz 18 nm / 33 km - - - 680 ft / 207 m (AMSL)
34 Localiser LY 111.30 MHz 18 nm / 33 km 343.44° 341.94° - 640 ft / 195 m (AMSL)
34 Glidescope LY 111.30 MHz 10 nm / 19 km 343.44° 341.94° 3.00° 659 ft / 201 m (AMSL)
34 DME LY 111.30 MHz 18 nm / 33 km - - - 715 ft / 218 m (AMSL)

Popular Alternatives